createdAt,value
2018-10-16T00:00:28.303Z,54.30
2018-10-16T00:02:56.731Z,54.30
2018-10-16T00:05:25.659Z,54.30
2018-10-16T00:07:54.062Z,54.30
2018-10-16T00:10:27.990Z,54.20
2018-10-16T00:12:59.750Z,54.20
2018-10-16T00:15:28.569Z,54.20
2018-10-16T00:17:57.083Z,54.20
2018-10-16T00:20:25.831Z,54.20
2018-10-16T00:22:55.623Z,54.20
2018-10-16T00:25:24.809Z,54.70
2018-10-16T00:27:53.411Z,54.00
2018-10-16T00:30:21.942Z,54.00
2018-10-16T00:32:50.512Z,54.00
2018-10-16T00:35:19.083Z,54.00
2018-10-16T00:37:47.565Z,54.00
2018-10-16T00:40:16.205Z,54.00
2018-10-16T00:42:44.920Z,54.00
2018-10-16T00:45:15.715Z,54.00
2018-10-16T00:47:44.344Z,53.90
2018-10-16T00:50:12.865Z,53.90
2018-10-16T00:52:41.477Z,53.90
2018-10-16T00:55:10.605Z,53.90
2018-10-16T00:57:40.661Z,53.90
2018-10-16T01:00:10.853Z,53.90
2018-10-16T01:02:40.332Z,53.90
2018-10-16T01:05:09.739Z,53.90
2018-10-16T01:07:38.495Z,53.90
2018-10-16T01:10:07.848Z,53.80
2018-10-16T01:12:37.809Z,53.80
2018-10-16T01:15:07.199Z,53.80
2018-10-16T01:17:36.010Z,53.70
2018-10-16T01:20:05.150Z,53.70
2018-10-16T01:22:33.896Z,53.70
2018-10-16T01:25:03.266Z,53.70
2018-10-16T01:27:32.038Z,53.70
2018-10-16T01:30:00.900Z,53.70
2018-10-16T01:32:29.756Z,53.20
2018-10-16T01:35:01.084Z,53.70
2018-10-16T01:37:30.412Z,53.70
2018-10-16T01:39:59.712Z,53.60
2018-10-16T01:42:28.429Z,53.60
2018-10-16T01:50:11.546Z,53.60
2018-10-16T01:52:49.754Z,53.50
2018-10-16T01:55:23.145Z,53.50
2018-10-16T01:57:54.443Z,53.50
2018-10-16T02:00:22.929Z,53.50
2018-10-16T02:02:51.947Z,53.50
2018-10-16T02:05:20.717Z,53.50
2018-10-16T02:07:49.379Z,53.50
2018-10-16T02:10:18.144Z,53.50
2018-10-16T02:12:46.993Z,53.50
2018-10-16T02:15:15.814Z,53.50
2018-10-16T02:17:44.743Z,53.50
2018-10-16T02:20:13.490Z,54.10
2018-10-16T02:22:42.371Z,53.50
2018-10-16T02:25:11.461Z,53.50
2018-10-16T02:27:40.743Z,53.50
2018-10-16T02:30:09.228Z,53.50
2018-10-16T02:32:37.647Z,53.50
2018-10-16T02:35:08.281Z,53.40
2018-10-16T02:37:36.789Z,53.40
2018-10-16T02:40:06.217Z,53.40
2018-10-16T02:42:34.681Z,53.40
2018-10-16T02:45:03.043Z,53.30
2018-10-16T02:47:31.384Z,53.40
2018-10-16T02:49:59.981Z,53.40
2018-10-16T02:52:28.335Z,53.30
2018-10-16T02:54:56.661Z,53.30
2018-10-16T02:57:25.311Z,53.30
2018-10-16T02:59:54.387Z,53.30
2018-10-16T03:02:23.690Z,53.30
2018-10-16T03:04:52.032Z,53.10
2018-10-16T03:07:21.249Z,53.90
2018-10-16T03:09:49.577Z,53.30
2018-10-16T03:12:17.935Z,53.30
2018-10-16T03:14:46.888Z,53.20
2018-10-16T03:17:15.290Z,53.30
2018-10-16T03:19:43.751Z,53.20
2018-10-16T03:22:12.121Z,53.20
2018-10-16T03:24:40.453Z,53.30
2018-10-16T03:27:08.832Z,53.20
2018-10-16T03:29:37.270Z,53.20
2018-10-16T03:32:06.058Z,53.20
2018-10-16T03:34:34.437Z,53.20
2018-10-16T03:37:02.914Z,53.20
2018-10-16T03:39:31.269Z,53.20
2018-10-16T03:41:59.652Z,53.20
2018-10-16T03:44:27.981Z,53.10
2018-10-16T03:46:56.386Z,53.20
2018-10-16T03:49:24.758Z,53.20
2018-10-16T03:51:53.325Z,53.20
2018-10-16T03:54:22.151Z,53.20
2018-10-16T03:56:50.566Z,53.20
2018-10-16T03:59:18.862Z,53.20
2018-10-16T04:01:47.254Z,53.20
2018-10-16T04:04:15.747Z,53.20
2018-10-16T04:06:44.106Z,53.30
2018-10-16T04:09:12.483Z,53.30
2018-10-16T04:11:40.997Z,53.30
2018-10-16T04:14:09.515Z,53.30
2018-10-16T04:16:37.934Z,53.30
2018-10-16T04:19:06.638Z,53.30
2018-10-16T04:21:44.611Z,53.30
2018-10-16T04:24:13.349Z,53.30
2018-10-16T04:26:42.031Z,53.30
2018-10-16T04:29:11.133Z,53.20
2018-10-16T04:31:39.508Z,53.20
2018-10-16T04:34:09.323Z,53.20
2018-10-16T04:36:37.673Z,53.20
2018-10-16T04:39:10.413Z,53.10
2018-10-16T04:41:38.827Z,53.10
2018-10-16T04:44:08.097Z,53.10
2018-10-16T04:46:37.077Z,53.00
2018-10-16T04:49:06.041Z,53.10
2018-10-16T04:51:34.460Z,53.00
2018-10-16T04:54:02.821Z,53.00
2018-10-16T04:56:31.760Z,52.90
2018-10-16T04:59:00.189Z,52.90
2018-10-16T05:01:28.537Z,52.90
2018-10-16T05:03:57.535Z,52.90
2018-10-16T05:06:25.858Z,52.80
2018-10-16T05:08:54.227Z,52.80
2018-10-16T05:11:22.566Z,52.80
2018-10-16T05:13:51.006Z,52.70
2018-10-16T05:16:20.006Z,52.80
2018-10-16T05:18:48.381Z,52.70
2018-10-16T05:21:16.846Z,52.70
2018-10-16T05:23:45.178Z,52.70
2018-10-16T05:26:13.652Z,52.70
2018-10-16T05:28:42.030Z,52.60
2018-10-16T05:31:10.411Z,52.70
2018-10-16T05:33:38.853Z,52.70
2018-10-16T05:36:07.578Z,52.70
2018-10-16T05:38:36.116Z,52.70
2018-10-16T05:41:04.790Z,52.70
2018-10-16T05:43:33.136Z,52.70
2018-10-16T05:46:01.522Z,52.70
2018-10-16T05:48:30.082Z,53.20
2018-10-16T05:50:58.552Z,52.60
2018-10-16T05:53:26.930Z,52.60
2018-10-16T05:56:01.363Z,52.60
2018-10-16T05:58:29.827Z,52.10
2018-10-16T06:00:58.162Z,52.60
2018-10-16T06:03:26.757Z,52.60
2018-10-16T06:05:55.282Z,52.60
2018-10-16T06:08:23.835Z,52.60
2018-10-16T06:10:52.249Z,52.50
2018-10-16T06:13:20.667Z,52.50
2018-10-16T06:15:49.707Z,52.50
2018-10-16T06:18:18.561Z,52.50
2018-10-16T06:20:46.962Z,52.50
2018-10-16T06:23:15.399Z,52.40
2018-10-16T06:25:43.839Z,52.40
2018-10-16T06:28:17.513Z,52.50
2018-10-16T06:30:46.005Z,52.50
2018-10-16T06:33:15.615Z,52.40
2018-10-16T06:35:44.016Z,52.60
2018-10-16T06:38:12.437Z,52.50
2018-10-16T06:40:40.876Z,52.40
2018-10-16T06:43:09.200Z,52.40
2018-10-16T06:45:37.638Z,52.30
2018-10-16T06:48:06.433Z,52.30
2018-10-16T06:50:34.897Z,52.20
2018-10-16T06:53:03.295Z,52.10
2018-10-16T06:55:31.944Z,52.10
2018-10-16T06:58:00.393Z,52.10
2018-10-16T07:00:28.783Z,52.10
2018-10-16T07:02:57.177Z,52.10
2018-10-16T07:05:25.553Z,51.90
2018-10-16T07:07:53.890Z,52.40
2018-10-16T07:10:22.287Z,51.50
2018-10-16T07:12:50.671Z,51.30
2018-10-16T07:15:19.029Z,51.20
2018-10-16T07:17:47.375Z,51.20
2018-10-16T07:20:17.058Z,51.20
2018-10-16T07:22:45.433Z,51.10
2018-10-16T07:25:13.747Z,51.00
2018-10-16T07:27:42.230Z,50.90
2018-10-16T07:30:13.392Z,51.00
2018-10-16T07:32:41.700Z,50.90
2018-10-16T07:35:10.524Z,50.80
2018-10-16T07:37:39.665Z,50.90
2018-10-16T07:40:09.438Z,50.90
2018-10-16T07:42:37.979Z,51.00
2018-10-16T07:45:07.178Z,50.90
2018-10-16T07:47:35.765Z,51.00
2018-10-16T07:50:06.446Z,50.90
2018-10-16T07:52:34.822Z,50.90
2018-10-16T07:55:03.309Z,51.00
2018-10-16T07:57:31.667Z,50.90
2018-10-16T08:00:00.062Z,51.00
2018-10-16T08:02:28.424Z,51.00
2018-10-16T08:04:56.871Z,50.90
2018-10-16T08:07:25.306Z,50.80
2018-10-16T08:09:53.606Z,50.80
2018-10-16T08:12:22.106Z,50.70
2018-10-16T08:14:50.481Z,50.60
2018-10-16T08:17:18.896Z,50.70
2018-10-16T08:19:47.260Z,50.60
2018-10-16T08:22:15.680Z,50.60
2018-10-16T08:24:44.018Z,50.80
2018-10-16T08:27:12.400Z,50.60
2018-10-16T08:29:41.217Z,50.60
2018-10-16T08:32:09.575Z,50.70
2018-10-16T08:34:37.958Z,50.60
2018-10-16T08:37:09.132Z,50.70
2018-10-16T08:39:39.854Z,50.50
2018-10-16T08:43:23.542Z,50.60
2018-10-16T08:46:03.269Z,50.60
2018-10-16T08:48:43.583Z,50.60
2018-10-16T08:51:23.463Z,50.50
2018-10-16T08:53:51.833Z,50.60
2018-10-16T08:56:20.312Z,50.60
2018-10-16T08:58:48.657Z,50.50
2018-10-16T09:01:17.037Z,50.60
2018-10-16T09:03:45.441Z,50.60
2018-10-16T09:06:14.065Z,50.60
2018-10-16T09:08:42.433Z,50.60
2018-10-16T09:11:11.551Z,50.60
2018-10-16T09:13:40.323Z,50.70
2018-10-16T09:16:09.819Z,50.60
2018-10-16T09:18:38.517Z,50.70
2018-10-16T09:21:07.008Z,50.80
2018-10-16T09:23:35.471Z,50.70
2018-10-16T09:26:03.938Z,50.70
2018-10-16T09:28:32.299Z,50.70
2018-10-16T09:31:00.713Z,50.70
2018-10-16T09:33:29.664Z,50.70
2018-10-16T09:35:58.019Z,50.70
2018-10-16T09:38:26.981Z,50.70
2018-10-16T09:40:55.309Z,50.70
2018-10-16T09:43:23.835Z,50.70
2018-10-16T09:45:52.205Z,50.70
2018-10-16T09:48:20.569Z,50.70
2018-10-16T09:50:49.131Z,50.60
2018-10-16T09:53:17.489Z,50.60
2018-10-16T09:55:45.845Z,50.70
2018-10-16T09:58:14.324Z,50.60
2018-10-16T10:00:48.160Z,50.70
2018-10-16T10:03:16.615Z,50.70
2018-10-16T10:05:45.180Z,50.70
2018-10-16T10:08:13.578Z,50.80
2018-10-16T10:10:41.931Z,50.70
2018-10-16T10:13:10.392Z,50.70
2018-10-16T10:15:38.898Z,50.70
2018-10-16T10:18:07.479Z,50.70
2018-10-16T10:20:35.812Z,50.70
2018-10-16T10:23:04.217Z,50.70
2018-10-16T10:25:32.580Z,50.70
2018-10-16T10:28:00.984Z,50.70
2018-10-16T10:30:29.440Z,50.70
2018-10-16T10:33:04.660Z,50.70
2018-10-16T10:35:32.990Z,50.70
2018-10-16T10:38:01.380Z,50.70
2018-10-16T10:40:30.436Z,50.70
2018-10-16T10:42:58.813Z,51.30
2018-10-16T10:45:27.152Z,50.70
2018-10-16T10:47:56.079Z,50.70
2018-10-16T10:50:24.651Z,50.70
2018-10-16T10:52:52.778Z,50.70
2018-10-16T10:55:21.202Z,50.70
2018-10-16T10:57:49.607Z,50.80
2018-10-16T11:00:17.981Z,50.80
2018-10-16T11:02:47.907Z,50.80
2018-10-16T11:05:16.225Z,50.80
2018-10-16T11:07:44.713Z,50.80
2018-10-16T11:10:14.154Z,50.80
2018-10-16T11:12:43.976Z,50.80
2018-10-16T11:15:12.430Z,50.80
2018-10-16T11:17:41.357Z,50.90
2018-10-16T11:20:11.947Z,50.90
2018-10-16T11:22:40.459Z,50.80
2018-10-16T11:25:09.740Z,50.70
2018-10-16T11:27:38.331Z,50.70
2018-10-16T11:30:11.575Z,50.70
2018-10-16T11:32:39.927Z,50.70
2018-10-16T11:35:09.313Z,51.20
2018-10-16T11:37:37.671Z,50.50
2018-10-16T11:40:06.032Z,50.30
2018-10-16T11:42:34.422Z,50.10
2018-10-16T11:45:02.969Z,50.00
2018-10-16T11:47:31.494Z,49.70
2018-10-16T11:49:59.940Z,49.40
2018-10-16T11:52:28.391Z,49.40
2018-10-16T11:54:57.207Z,49.50
2018-10-16T11:57:26.057Z,49.60
2018-10-16T11:59:54.396Z,49.50
2018-10-16T12:02:22.811Z,49.50
2018-10-16T12:04:51.524Z,48.90
2018-10-16T12:07:20.014Z,48.90
2018-10-16T12:09:48.348Z,48.70
2018-10-16T12:12:16.724Z,48.80
2018-10-16T12:14:45.120Z,48.90
2018-10-16T12:17:54.186Z,48.90
2018-10-16T12:20:28.917Z,48.70
2018-10-16T12:22:57.280Z,48.50
2018-10-16T12:25:25.678Z,48.70
2018-10-16T12:27:54.150Z,48.70
2018-10-16T12:30:22.550Z,48.60
2018-10-16T12:32:51.065Z,48.40
2018-10-16T12:35:19.560Z,48.30
2018-10-16T12:37:47.956Z,48.30
2018-10-16T12:40:16.395Z,48.30
2018-10-16T12:42:44.810Z,48.10
2018-10-16T12:45:13.263Z,48.10
2018-10-16T12:47:41.739Z,48.70
2018-10-16T12:50:10.276Z,48.00
2018-10-16T12:52:38.557Z,47.40
2018-10-16T12:55:07.972Z,47.30
2018-10-16T12:57:36.472Z,48.00
2018-10-16T13:00:05.714Z,47.90
2018-10-16T13:02:34.246Z,48.10
2018-10-16T13:05:02.910Z,48.10
2018-10-16T13:07:36.226Z,48.20
2018-10-16T13:10:11.556Z,48.20
2018-10-16T13:12:40.118Z,48.30
2018-10-16T13:15:10.106Z,48.30
2018-10-16T13:17:38.611Z,48.40
2018-10-16T13:20:08.363Z,48.40
2018-10-16T13:22:36.690Z,48.40
2018-10-16T13:25:05.857Z,48.30
2018-10-16T13:27:34.355Z,48.20
2018-10-16T13:30:02.767Z,48.10
2018-10-16T13:32:31.151Z,48.00
2018-10-16T13:35:00.620Z,47.90
2018-10-16T13:37:29.056Z,47.70
2018-10-16T13:39:57.433Z,47.70
2018-10-16T13:42:25.828Z,47.60
2018-10-16T13:44:54.247Z,47.60
2018-10-16T13:47:23.143Z,47.80
2018-10-16T13:49:51.608Z,47.80
2018-10-16T13:52:20.029Z,47.70
2018-10-16T13:54:48.402Z,47.80
2018-10-16T13:57:17.211Z,47.80
2018-10-16T13:59:45.644Z,47.80
2018-10-16T14:02:14.116Z,47.90
2018-10-16T14:04:43.139Z,47.90
2018-10-16T14:07:11.519Z,48.00
2018-10-16T14:09:39.911Z,48.10
2018-10-16T14:12:08.918Z,48.20
2018-10-16T14:14:37.559Z,48.30
2018-10-16T14:17:06.768Z,48.40
2018-10-16T14:19:35.136Z,48.50
2018-10-16T14:22:04.537Z,48.60
2018-10-16T14:24:32.901Z,48.70
2018-10-16T14:27:01.391Z,48.70
2018-10-16T14:29:30.598Z,48.80
2018-10-16T14:31:59.250Z,48.90
2018-10-16T14:34:27.823Z,49.00
2018-10-16T14:36:56.876Z,49.00
2018-10-16T14:39:25.343Z,49.10
2018-10-16T14:41:54.888Z,49.10
2018-10-16T14:44:23.289Z,49.10
2018-10-16T14:51:26.262Z,49.20
2018-10-16T14:56:31.372Z,50.00
2018-10-16T14:58:59.875Z,49.40
2018-10-16T15:01:28.414Z,49.20
2018-10-16T15:03:57.086Z,49.30
2018-10-16T15:06:26.090Z,49.30
2018-10-16T15:08:54.604Z,49.30
2018-10-16T15:11:23.630Z,49.30
2018-10-16T15:13:52.462Z,49.30
2018-10-16T15:16:20.816Z,49.30
2018-10-16T15:18:49.291Z,49.40
2018-10-16T15:21:17.846Z,49.70
2018-10-16T15:23:46.241Z,49.90
2018-10-16T15:26:14.774Z,50.30
2018-10-16T15:28:43.061Z,50.70
2018-10-16T15:31:11.617Z,51.00
2018-10-16T15:33:39.970Z,51.10
2018-10-16T15:36:09.220Z,51.10
2018-10-16T15:38:37.656Z,51.30
2018-10-16T15:41:06.771Z,51.70
2018-10-16T15:43:35.461Z,51.80
2018-10-16T15:46:04.472Z,51.90
2018-10-16T15:48:33.022Z,52.40
2018-10-16T15:51:01.368Z,53.80
2018-10-16T15:53:29.871Z,53.20
2018-10-16T15:55:58.363Z,53.00
2018-10-16T15:58:26.764Z,52.70
2018-10-16T16:00:55.262Z,52.60
2018-10-16T16:03:23.603Z,52.90
2018-10-16T16:05:52.630Z,52.50
2018-10-16T16:08:21.104Z,52.70
2018-10-16T16:10:50.045Z,52.90
2018-10-16T16:13:19.046Z,52.70
2018-10-16T16:15:47.532Z,52.70
2018-10-16T16:18:15.912Z,52.90
2018-10-16T16:20:44.283Z,52.70
2018-10-16T16:23:12.687Z,52.90
2018-10-16T16:25:41.133Z,52.90
2018-10-16T16:28:09.632Z,53.00
2018-10-16T16:30:38.058Z,53.00
2018-10-16T16:33:06.816Z,53.20
2018-10-16T16:35:35.760Z,53.60
2018-10-16T16:38:04.859Z,53.60
2018-10-16T16:40:36.829Z,53.50
2018-10-16T16:43:05.515Z,53.40
2018-10-16T16:45:34.303Z,53.50
2018-10-16T16:48:02.909Z,53.40
2018-10-16T16:50:37.140Z,53.40
2018-10-16T16:53:06.393Z,53.30
2018-10-16T16:55:41.635Z,53.40
2018-10-16T16:58:12.356Z,53.40
2018-10-16T17:00:40.956Z,53.40
2018-10-16T17:03:18.710Z,53.50
2018-10-16T17:09:11.483Z,53.50
2018-10-16T17:11:40.051Z,53.50
2018-10-16T17:14:09.884Z,53.50
2018-10-16T17:16:44.368Z,53.50
2018-10-16T17:19:12.920Z,53.50
2018-10-16T17:21:41.459Z,53.50
2018-10-16T17:24:10.037Z,53.50
2018-10-16T17:26:38.687Z,53.50
2018-10-16T17:29:07.066Z,53.50
2018-10-16T17:31:35.497Z,53.50
2018-10-16T17:34:04.061Z,53.40
2018-10-16T17:36:32.551Z,53.30
2018-10-16T17:39:04.031Z,53.40
2018-10-16T17:41:32.369Z,53.30
2018-10-16T17:44:00.856Z,53.30
2018-10-16T17:46:29.408Z,53.20
2018-10-16T17:48:58.121Z,53.20
2018-10-16T17:51:26.531Z,53.10
2018-10-16T17:53:55.132Z,53.20
2018-10-16T17:56:23.790Z,53.10
2018-10-16T17:58:52.450Z,53.10
2018-10-16T18:01:21.257Z,53.10
2018-10-16T18:03:49.865Z,53.00
2018-10-16T18:06:19.478Z,53.00
2018-10-16T18:08:48.103Z,53.00
2018-10-16T18:11:16.617Z,53.60
2018-10-16T18:13:45.269Z,53.00
2018-10-16T18:16:14.400Z,53.00
2018-10-16T18:18:42.945Z,53.20
2018-10-16T18:21:11.824Z,53.30
2018-10-16T18:23:40.411Z,53.40
2018-10-16T18:26:09.132Z,53.20
2018-10-16T18:28:37.590Z,53.10
2018-10-16T18:31:06.781Z,53.20
2018-10-16T18:33:35.193Z,53.40
2018-10-16T18:36:03.777Z,54.00
2018-10-16T18:38:32.193Z,53.30
2018-10-16T18:41:00.709Z,53.40
2018-10-16T18:43:29.341Z,53.40
2018-10-16T18:45:57.894Z,54.00
2018-10-16T18:48:26.555Z,53.50
2018-10-16T18:50:55.037Z,53.50
2018-10-16T18:53:23.557Z,53.50
2018-10-16T18:55:52.007Z,53.50
2018-10-16T18:58:20.653Z,53.50
2018-10-16T19:00:49.059Z,53.50
2018-10-16T19:03:17.719Z,53.50
2018-10-16T19:05:46.196Z,53.50
2018-10-16T19:08:14.703Z,53.50
2018-10-16T19:10:43.157Z,53.50
2018-10-16T19:13:11.761Z,54.20
2018-10-16T19:15:40.425Z,53.60
2018-10-16T19:18:08.952Z,53.70
2018-10-16T19:20:37.503Z,53.60
2018-10-16T19:23:06.180Z,53.70
2018-10-16T19:25:34.599Z,53.40
2018-10-16T19:28:03.030Z,53.70
2018-10-16T19:30:31.590Z,53.70
2018-10-16T19:33:00.921Z,53.70
2018-10-16T19:35:29.394Z,53.70
2018-10-16T19:37:57.970Z,53.70
2018-10-16T19:40:28.014Z,53.60
2018-10-16T19:42:57.581Z,53.60
2018-10-16T19:45:27.050Z,53.20
2018-10-16T19:47:55.614Z,53.60
2018-10-16T19:50:24.458Z,53.60
2018-10-16T19:52:52.956Z,53.60
2018-10-16T19:55:21.658Z,53.60
2018-10-16T19:57:50.214Z,53.60
2018-10-16T20:00:18.863Z,53.30
2018-10-16T20:02:47.294Z,53.60
2018-10-16T20:05:15.796Z,53.60
2018-10-16T20:07:44.799Z,53.60
2018-10-16T20:10:13.348Z,53.60
2018-10-16T20:12:42.396Z,53.60
2018-10-16T20:15:12.002Z,53.60
2018-10-16T20:17:40.476Z,53.60
2018-10-16T20:20:10.064Z,53.60
2018-10-16T20:22:38.622Z,53.60
2018-10-16T20:25:08.124Z,53.60
2018-10-16T20:27:36.597Z,53.50
2018-10-16T20:30:06.423Z,53.60
2018-10-16T20:32:34.869Z,53.60
2018-10-16T20:35:03.613Z,54.20
2018-10-16T20:37:32.063Z,53.60
2018-10-16T20:40:00.579Z,53.60
2018-10-16T20:42:29.118Z,53.60
2018-10-16T20:44:57.615Z,53.60
2018-10-16T20:47:26.127Z,53.60
2018-10-16T20:49:55.415Z,53.70
2018-10-16T20:52:25.879Z,53.60
2018-10-16T20:54:54.436Z,53.50
2018-10-16T20:57:23.615Z,53.50
2018-10-16T20:59:52.427Z,53.50
2018-10-16T21:02:21.175Z,53.50
2018-10-16T21:04:49.949Z,53.50
2018-10-16T21:07:18.635Z,53.50
2018-10-16T21:09:47.318Z,53.50
2018-10-16T21:12:15.734Z,53.50
2018-10-16T21:14:44.203Z,53.50
2018-10-16T21:17:12.704Z,53.50
2018-10-16T21:19:41.750Z,53.50
2018-10-16T21:22:10.412Z,53.50
2018-10-16T21:24:39.659Z,53.50
2018-10-16T21:27:09.328Z,53.50
2018-10-16T21:29:38.456Z,53.50
2018-10-16T21:32:07.767Z,53.50
2018-10-16T21:34:36.417Z,53.50
2018-10-16T21:37:05.201Z,53.50
2018-10-16T21:39:34.334Z,54.10
2018-10-16T21:42:02.946Z,53.50
2018-10-16T21:44:34.184Z,53.50
2018-10-16T21:47:02.652Z,53.40
2018-10-16T21:49:31.133Z,53.40
2018-10-16T21:51:59.775Z,53.40
2018-10-16T21:54:28.163Z,53.40
2018-10-16T21:56:56.837Z,53.40
2018-10-16T21:59:25.692Z,53.40
2018-10-16T22:02:59.453Z,53.30
2018-10-16T22:05:28.823Z,53.30
2018-10-16T22:07:58.022Z,53.30
2018-10-16T22:10:26.485Z,53.30
2018-10-16T22:12:54.959Z,53.30
2018-10-16T22:15:23.606Z,53.30
2018-10-16T22:17:52.325Z,53.30
2018-10-16T22:20:20.932Z,53.20
2018-10-16T22:22:49.598Z,53.20
2018-10-16T22:25:18.035Z,53.20
2018-10-16T22:27:46.705Z,53.20
2018-10-16T22:30:15.150Z,53.20
2018-10-16T22:32:43.711Z,53.20
2018-10-16T22:35:12.315Z,53.20
2018-10-16T22:37:41.765Z,53.20
2018-10-16T22:40:10.621Z,53.20
2018-10-16T22:42:39.300Z,53.20
2018-10-16T22:45:08.313Z,53.20
2018-10-16T22:47:37.883Z,53.20
2018-10-16T22:50:10.329Z,53.20
2018-10-16T22:52:39.130Z,53.20
2018-10-16T22:55:08.690Z,53.20
2018-10-16T22:57:37.639Z,53.20
2018-10-16T23:00:08.812Z,53.10
2018-10-16T23:02:37.392Z,53.10
2018-10-16T23:05:06.322Z,53.10
2018-10-16T23:07:34.834Z,53.10
2018-10-16T23:10:04.081Z,53.10
2018-10-16T23:12:32.887Z,53.10
2018-10-16T23:15:01.380Z,53.00
2018-10-16T23:17:30.940Z,53.00
2018-10-16T23:19:59.356Z,53.00
2018-10-16T23:22:28.440Z,53.00
2018-10-16T23:24:56.913Z,53.00
2018-10-16T23:27:25.414Z,53.60
2018-10-16T23:29:54.004Z,52.90
2018-10-16T23:32:22.456Z,52.90
2018-10-16T23:34:51.012Z,52.90
2018-10-16T23:37:19.764Z,52.90
2018-10-16T23:39:48.440Z,52.90
2018-10-16T23:42:16.910Z,52.90
2018-10-16T23:44:45.698Z,52.90
2018-10-16T23:47:14.257Z,52.90
2018-10-16T23:49:42.786Z,52.90
2018-10-16T23:52:11.326Z,52.80
2018-10-16T23:54:41.141Z,52.80
2018-10-16T23:57:10.846Z,53.00
2018-10-16T23:59:39.489Z,52.80
